Terminal Aerodrome Forecast
Issued by NWS

Home | Current Version | Previous Version | Text Only | Print | Product List | Glossary On
Versions: 1 2 3 4 5 6 7 8 9 10 11 12
000
FTUS45 KLKN 201148
TAFWMC
TAF
KWMC 201148Z 2012/2112 01008KT P6SM SCT150
     FM202000 33009KT P6SM SCT120
     FM210400 05009KT P6SM FEW120=

USA.gov is the U.S. government's official web portal to all federal, state and local government web resources and services.